createdAt,value
2022-09-03T00:00:11.269Z,65.86
2022-09-03T00:01:13.393Z,65.87
2022-09-03T00:01:55.357Z,65.96
2022-09-03T00:02:46.349Z,66.07
2022-09-03T00:03:34.983Z,65.85
2022-09-03T00:04:20.684Z,65.93
2022-09-03T00:05:17.486Z,65.92
2022-09-03T00:06:06.720Z,65.87
2022-09-03T00:06:49.813Z,65.88
2022-09-03T00:07:53.322Z,65.96
2022-09-03T00:08:44.721Z,66.00
2022-09-03T00:09:29.004Z,66.01
2022-09-03T00:10:12.155Z,65.96
2022-09-03T00:10:59.946Z,65.99
2022-09-03T00:12:06.365Z,65.94
2022-09-03T00:12:45.199Z,66.00
2022-09-03T00:13:26.219Z,66.03
2022-09-03T00:14:20.125Z,65.96
2022-09-03T00:15:15.432Z,66.06
2022-09-03T00:15:51.365Z,66.10
2022-09-03T00:16:30.298Z,66.20
2022-09-03T00:17:12.450Z,66.21
2022-09-03T00:18:01.175Z,66.18
2022-09-03T00:18:36.331Z,66.16
2022-09-03T00:19:12.032Z,66.19
2022-09-03T00:20:00.732Z,66.11
2022-09-03T00:20:47.586Z,66.19
2022-09-03T00:21:36.084Z,66.16
2022-09-03T00:22:19.870Z,66.13
2022-09-03T00:22:55.636Z,66.11
2022-09-03T00:23:31.633Z,66.12
2022-09-03T00:24:08.005Z,66.08
2022-09-03T00:24:50.541Z,66.14
2022-09-03T00:25:38.804Z,66.11
2022-09-03T00:26:12.489Z,66.07
2022-09-03T00:26:52.317Z,66.08
2022-09-03T00:27:28.502Z,66.13
2022-09-03T00:28:05.903Z,66.13
2022-09-03T00:29:04.146Z,66.12
2022-09-03T00:29:43.750Z,66.13
2022-09-03T00:30:18.221Z,66.17
2022-09-03T00:31:11.491Z,66.27
2022-09-03T00:31:49.264Z,66.21
2022-09-03T00:32:38.304Z,66.23
2022-09-03T00:33:19.173Z,66.25
2022-09-03T00:33:53.495Z,66.27
2022-09-03T00:34:29.464Z,66.22
2022-09-03T00:35:06.691Z,66.28
2022-09-03T00:36:05.439Z,66.29
2022-09-03T00:36:46.096Z,66.23
2022-09-03T00:37:19.162Z,66.29
2022-09-03T00:37:53.809Z,66.30
2022-09-03T00:38:28.650Z,66.29
2022-09-03T00:39:01.847Z,66.24
2022-09-03T00:39:37.174Z,66.30
2022-09-03T00:40:35.812Z,66.30
2022-09-03T00:41:17.392Z,66.30
2022-09-03T00:42:07.002Z,66.36
2022-09-03T00:42:56.995Z,66.35
2022-09-03T00:43:35.886Z,66.35
2022-09-03T00:44:19.934Z,66.35
2022-09-03T00:45:16.138Z,66.43
2022-09-03T00:46:19.857Z,66.40
2022-09-03T00:47:13.874Z,66.45
2022-09-03T00:47:56.807Z,66.41
2022-09-03T00:48:44.980Z,66.43
2022-09-03T00:49:43.017Z,66.39
2022-09-03T00:50:37.124Z,66.50
2022-09-03T00:51:17.563Z,66.50
2022-09-03T00:52:05.841Z,66.48
2022-09-03T00:53:23.512Z,66.51
2022-09-03T00:54:35.826Z,66.54
2022-09-03T00:55:25.289Z,66.48
2022-09-03T00:56:10.753Z,66.55
2022-09-03T00:57:16.208Z,66.57
2022-09-03T00:57:55.779Z,66.56
2022-09-03T00:59:04.511Z,66.60
2022-09-03T00:59:59.330Z,66.56
2022-09-03T01:00:32.432Z,66.68
2022-09-03T01:01:21.017Z,66.77
2022-09-03T01:02:12.709Z,66.73
2022-09-03T01:03:07.377Z,66.74
2022-09-03T01:04:06.803Z,66.77
2022-09-03T01:04:57.582Z,66.76
2022-09-03T01:06:08.036Z,66.76
2022-09-03T01:06:48.812Z,66.83
2022-09-03T01:07:22.337Z,66.84
2022-09-03T01:08:21.025Z,66.67
2022-09-03T01:08:54.268Z,66.74
2022-09-03T01:09:41.391Z,66.81
2022-09-03T01:10:32.621Z,66.87
2022-09-03T01:11:12.032Z,66.78
2022-09-03T01:12:13.830Z,66.84
2022-09-03T01:12:52.829Z,66.83
2022-09-03T01:13:34.860Z,66.87
2022-09-03T01:14:16.317Z,66.92
2022-09-03T01:15:16.638Z,66.88
2022-09-03T01:16:14.144Z,66.92
2022-09-03T01:16:56.492Z,66.91
2022-09-03T01:17:55.158Z,66.94
2022-09-03T01:19:09.510Z,66.99
2022-09-03T01:20:14.014Z,66.86
2022-09-03T01:21:32.126Z,66.92
2022-09-03T01:22:07.979Z,66.91
2022-09-03T01:22:58.126Z,66.91
2022-09-03T01:24:09.344Z,66.91
2022-09-03T01:25:00.612Z,66.95
2022-09-03T01:26:01.637Z,66.96
2022-09-03T01:26:57.966Z,66.93
2022-09-03T01:28:00.201Z,66.93
2022-09-03T01:29:12.526Z,66.97
2022-09-03T01:30:10.623Z,66.97
2022-09-03T01:30:49.573Z,66.98
2022-09-03T01:31:40.533Z,66.95
2022-09-03T01:32:28.298Z,66.99
2022-09-03T01:33:26.402Z,67.04
2022-09-03T01:34:08.399Z,67.02
2022-09-03T01:34:54.205Z,67.02
2022-09-03T01:35:49.373Z,67.07
2022-09-03T01:37:00.998Z,67.09
2022-09-03T01:37:48.823Z,67.05
2022-09-03T01:38:27.810Z,67.10
2022-09-03T01:39:04.969Z,67.14
2022-09-03T01:39:58.305Z,67.14
2022-09-03T01:40:52.157Z,67.18
2022-09-03T01:42:14.262Z,67.12
2022-09-03T01:43:16.878Z,67.11
2022-09-03T01:44:25.910Z,67.21
2022-09-03T01:45:02.138Z,67.16
2022-09-03T01:45:53.636Z,67.21
2022-09-03T01:46:51.537Z,67.17
2022-09-03T01:47:50.267Z,67.20
2022-09-03T01:48:35.441Z,67.20
2022-09-03T01:49:35.227Z,67.19
2022-09-03T01:50:40.065Z,67.11
2022-09-03T01:51:24.290Z,67.13
2022-09-03T01:52:20.142Z,67.10
2022-09-03T01:53:39.421Z,67.05
2022-09-03T01:54:53.717Z,67.08
2022-09-03T01:55:47.623Z,67.08
2022-09-03T01:56:51.911Z,67.08
2022-09-03T01:57:46.295Z,67.06
2022-09-03T01:58:31.667Z,67.12
2022-09-03T01:59:48.556Z,67.14
2022-09-03T02:00:21.934Z,67.08
2022-09-03T02:01:02.275Z,67.20
2022-09-03T02:01:50.260Z,67.16
2022-09-03T02:02:26.084Z,67.26
2022-09-03T02:03:05.961Z,67.25
2022-09-03T02:03:44.936Z,67.24
2022-09-03T02:04:23.728Z,67.26
2022-09-03T02:05:09.149Z,67.20
2022-09-03T02:05:44.358Z,67.27
2022-09-03T02:06:20.982Z,67.29
2022-09-03T02:06:57.774Z,67.26
2022-09-03T02:07:41.443Z,67.30
2022-09-03T02:08:14.685Z,67.27
2022-09-03T02:08:48.154Z,67.31
2022-09-03T02:09:21.779Z,67.31
2022-09-03T02:09:55.029Z,67.34
2022-09-03T02:10:43.387Z,67.37
2022-09-03T02:11:17.010Z,67.39
2022-09-03T02:11:56.197Z,67.33
2022-09-03T02:12:34.003Z,67.39
2022-09-03T02:13:10.825Z,67.38
2022-09-03T02:13:55.297Z,67.39
2022-09-03T02:14:30.501Z,67.31
2022-09-03T02:15:07.532Z,67.27
2022-09-03T02:15:48.280Z,67.22
2022-09-03T02:16:26.034Z,67.33
2022-09-03T02:17:01.479Z,67.29
2022-09-03T02:17:36.037Z,67.27
2022-09-03T02:18:22.719Z,67.25
2022-09-03T02:19:08.351Z,67.23
2022-09-03T02:19:41.781Z,67.23
2022-09-03T02:20:20.432Z,67.26
2022-09-03T02:20:55.032Z,67.24
2022-09-03T02:21:34.927Z,67.26
2022-09-03T02:22:08.349Z,67.31
2022-09-03T02:22:42.947Z,67.25
2022-09-03T02:23:17.305Z,67.30
2022-09-03T02:23:50.829Z,67.32
2022-09-03T02:24:26.455Z,67.27
2022-09-03T02:25:00.536Z,67.29
2022-09-03T02:25:39.801Z,67.35
2022-09-03T02:26:16.505Z,67.25
2022-09-03T02:26:50.143Z,67.21
2022-09-03T02:27:23.449Z,67.18
2022-09-03T02:27:56.829Z,67.24
2022-09-03T02:28:32.680Z,67.22
2022-09-03T02:29:06.247Z,67.24
2022-09-03T02:29:39.353Z,67.29
2022-09-03T02:30:13.119Z,67.27
2022-09-03T02:30:46.499Z,67.31
2022-09-03T02:31:20.155Z,67.21
2022-09-03T02:31:53.302Z,67.19
2022-09-03T02:32:27.185Z,67.19
2022-09-03T02:33:00.764Z,67.19
2022-09-03T02:33:38.983Z,67.19
2022-09-03T02:34:12.442Z,67.14
2022-09-03T02:34:45.733Z,67.22
2022-09-03T02:35:18.908Z,67.25
2022-09-03T02:35:52.671Z,67.33
2022-09-03T02:36:30.800Z,67.31
2022-09-03T02:37:13.992Z,67.30
2022-09-03T02:37:47.183Z,67.37
2022-09-03T02:38:26.110Z,67.39
2022-09-03T02:38:59.534Z,67.37
2022-09-03T02:39:36.174Z,67.27
2022-09-03T02:40:12.360Z,67.24
2022-09-03T02:40:46.186Z,67.20
2022-09-03T02:41:19.500Z,67.16
2022-09-03T02:41:57.725Z,67.17
2022-09-03T02:42:31.325Z,67.14
2022-09-03T02:43:09.083Z,67.19
2022-09-03T02:43:55.264Z,67.16
2022-09-03T02:44:33.604Z,67.11
2022-09-03T02:45:20.541Z,67.15
2022-09-03T02:46:00.110Z,67.09
2022-09-03T02:46:41.377Z,67.14
2022-09-03T02:47:15.523Z,67.17
2022-09-03T02:47:52.637Z,67.28
2022-09-03T02:48:25.889Z,67.18
2022-09-03T02:48:59.184Z,67.31
2022-09-03T02:49:32.866Z,67.24
2022-09-03T02:50:06.413Z,67.28
2022-09-03T02:50:42.881Z,67.27
2022-09-03T02:51:16.263Z,67.19
2022-09-03T02:51:49.473Z,67.20
2022-09-03T02:52:22.654Z,67.18
2022-09-03T02:52:56.162Z,67.15
2022-09-03T02:53:29.362Z,67.16
2022-09-03T02:54:03.141Z,67.16
2022-09-03T02:54:40.115Z,67.16
2022-09-03T02:55:13.435Z,67.05
2022-09-03T02:55:47.694Z,67.13
2022-09-03T02:56:20.852Z,67.08
2022-09-03T02:56:54.878Z,67.08
2022-09-03T02:57:28.857Z,67.10
2022-09-03T02:58:02.054Z,67.01
2022-09-03T02:58:35.429Z,67.09
2022-09-03T02:59:09.853Z,67.09
2022-09-03T02:59:47.269Z,67.11
2022-09-03T03:00:20.364Z,67.11
2022-09-03T03:00:54.471Z,67.14
2022-09-03T03:01:28.111Z,67.18
2022-09-03T03:02:02.576Z,67.16
2022-09-03T03:02:35.856Z,67.14
2022-09-03T03:03:09.106Z,67.12
2022-09-03T03:03:42.367Z,67.08
2022-09-03T03:04:16.099Z,67.02
2022-09-03T03:04:49.688Z,67.14
2022-09-03T03:05:30.401Z,67.04
2022-09-03T03:06:06.283Z,66.98
2022-09-03T03:06:39.402Z,67.00
2022-09-03T03:07:12.563Z,66.99
2022-09-03T03:07:45.804Z,66.96
2022-09-03T03:08:24.103Z,67.06
2022-09-03T03:08:57.424Z,67.04
2022-09-03T03:09:30.607Z,67.03
2022-09-03T03:10:04.685Z,67.02
2022-09-03T03:10:38.964Z,67.01
2022-09-03T03:11:12.100Z,67.01
2022-09-03T03:11:45.563Z,67.04
2022-09-03T03:12:19.638Z,67.06
2022-09-03T03:12:52.798Z,67.08
2022-09-03T03:13:27.459Z,67.01
2022-09-03T03:14:00.771Z,67.10
2022-09-03T03:14:34.016Z,67.09
2022-09-03T03:15:07.588Z,67.01
2022-09-03T03:15:40.732Z,67.02
2022-09-03T03:16:16.103Z,67.04
2022-09-03T03:16:50.585Z,66.93
2022-09-03T03:17:24.042Z,67.12
2022-09-03T03:17:57.806Z,67.02
2022-09-03T03:18:31.075Z,67.07
2022-09-03T03:19:04.489Z,67.04
2022-09-03T03:19:37.974Z,67.00
2022-09-03T03:20:11.416Z,67.00
2022-09-03T03:20:44.774Z,66.96
2022-09-03T03:21:19.429Z,66.96
2022-09-03T03:21:52.586Z,67.00
2022-09-03T03:22:25.750Z,67.00
2022-09-03T03:22:58.994Z,67.00
2022-09-03T03:23:33.515Z,66.93
2022-09-03T03:24:07.394Z,66.99
2022-09-03T03:24:41.082Z,67.04
2022-09-03T03:25:14.666Z,67.00
2022-09-03T03:25:49.085Z,67.03
2022-09-03T03:26:23.454Z,67.02
2022-09-03T03:27:00.330Z,67.09
2022-09-03T03:27:33.603Z,67.08
2022-09-03T03:28:07.533Z,67.17
2022-09-03T03:28:42.669Z,67.11
2022-09-03T03:29:18.089Z,67.12
2022-09-03T03:29:51.250Z,67.06
2022-09-03T03:30:24.623Z,67.12
2022-09-03T03:30:58.103Z,67.14
2022-09-03T03:31:32.135Z,67.07
2022-09-03T03:32:05.482Z,67.05
2022-09-03T03:32:38.723Z,67.03
2022-09-03T03:33:11.974Z,66.96
2022-09-03T03:33:45.926Z,66.88
2022-09-03T03:34:19.271Z,66.92
2022-09-03T03:34:52.370Z,66.96
2022-09-03T03:35:25.812Z,66.94
2022-09-03T03:35:59.415Z,67.01
2022-09-03T03:36:34.284Z,67.03
2022-09-03T03:37:07.570Z,67.00
2022-09-03T03:37:41.396Z,67.01
2022-09-03T03:38:14.723Z,66.99
2022-09-03T03:38:47.882Z,67.06
2022-09-03T03:39:21.433Z,67.05
2022-09-03T03:39:54.760Z,67.07
2022-09-03T03:40:28.573Z,67.12
2022-09-03T03:41:10.210Z,67.08
2022-09-03T03:41:43.357Z,67.04
2022-09-03T03:42:16.592Z,67.05
2022-09-03T03:42:50.374Z,67.08
2022-09-03T03:43:23.543Z,67.09
2022-09-03T03:43:58.753Z,67.04
2022-09-03T03:44:32.033Z,67.18
2022-09-03T03:45:06.758Z,67.08
2022-09-03T03:45:39.985Z,67.04
2022-09-03T03:46:15.313Z,67.09
2022-09-03T03:46:48.591Z,67.05
2022-09-03T03:47:21.793Z,67.02
2022-09-03T03:47:58.644Z,67.01
2022-09-03T03:48:32.743Z,67.03
2022-09-03T03:49:07.497Z,67.02
2022-09-03T03:49:40.827Z,67.00
2022-09-03T03:50:14.452Z,67.03
2022-09-03T03:50:47.767Z,67.09
2022-09-03T03:51:21.110Z,67.07
2022-09-03T03:51:54.395Z,67.06
2022-09-03T03:52:28.351Z,67.06
2022-09-03T03:53:01.780Z,67.00
2022-09-03T03:53:37.535Z,66.98
2022-09-03T03:54:10.713Z,67.01
2022-09-03T03:54:46.065Z,66.99
2022-09-03T03:55:19.363Z,67.04
2022-09-03T03:55:58.002Z,67.08
2022-09-03T03:56:31.604Z,67.06
2022-09-03T03:57:04.713Z,67.01
2022-09-03T03:57:38.061Z,67.06
2022-09-03T03:58:11.174Z,67.02
2022-09-03T03:58:44.598Z,67.01
2022-09-03T03:59:17.796Z,66.96
2022-09-03T03:59:51.119Z,67.00
2022-09-03T04:00:24.714Z,67.05
2022-09-03T04:01:12.789Z,67.04
2022-09-03T04:01:46.235Z,67.08
2022-09-03T04:02:19.678Z,67.12
2022-09-03T04:02:53.287Z,67.10
2022-09-03T04:03:26.532Z,67.09
2022-09-03T04:04:00.664Z,67.15
2022-09-03T04:04:34.251Z,67.18
2022-09-03T04:05:07.907Z,67.18
2022-09-03T04:05:46.240Z,67.22
2022-09-03T04:06:22.235Z,67.19
2022-09-03T04:06:55.377Z,67.12
2022-09-03T04:07:28.556Z,67.18
2022-09-03T04:08:03.026Z,67.16
2022-09-03T04:08:41.977Z,67.08
2022-09-03T04:09:15.066Z,67.11
2022-09-03T04:09:48.278Z,67.08
2022-09-03T04:10:21.348Z,67.01
2022-09-03T04:10:54.944Z,67.04
2022-09-03T04:11:28.285Z,67.02
2022-09-03T04:12:02.329Z,66.99
2022-09-03T04:12:35.692Z,66.99
2022-09-03T04:13:08.798Z,66.87
2022-09-03T04:13:44.276Z,66.95
2022-09-03T04:14:20.749Z,66.96
2022-09-03T04:14:53.889Z,67.00
2022-09-03T04:15:27.056Z,66.99
2022-09-03T04:16:03.458Z,66.95
2022-09-03T04:16:36.564Z,66.93
2022-09-03T04:17:09.705Z,66.96
2022-09-03T04:17:44.500Z,66.94
2022-09-03T04:18:17.602Z,66.87
2022-09-03T04:18:52.929Z,66.98
2022-09-03T04:19:26.076Z,67.01
2022-09-03T04:19:59.169Z,66.95
2022-09-03T04:20:32.419Z,66.99
2022-09-03T04:21:09.924Z,67.07
2022-09-03T04:21:43.779Z,67.03
2022-09-03T04:22:17.462Z,67.02
2022-09-03T04:22:52.046Z,66.93
2022-09-03T04:23:25.588Z,66.96
2022-09-03T04:23:59.704Z,66.94
2022-09-03T04:24:32.888Z,66.87
2022-09-03T04:25:06.590Z,66.92
2022-09-03T04:25:42.120Z,66.87
2022-09-03T04:26:18.635Z,66.88
2022-09-03T04:26:52.186Z,66.89
2022-09-03T04:27:25.319Z,66.86
2022-09-03T04:27:58.815Z,66.87
2022-09-03T04:28:33.279Z,66.83
2022-09-03T04:29:09.621Z,66.76
2022-09-03T04:29:42.751Z,66.81
2022-09-03T04:30:16.269Z,66.78
2022-09-03T04:30:50.074Z,66.85
2022-09-03T04:31:23.546Z,66.83
2022-09-03T04:32:15.249Z,66.89
2022-09-03T04:32:55.337Z,66.95
2022-09-03T04:33:28.709Z,66.91
2022-09-03T04:34:02.180Z,66.96
2022-09-03T04:34:35.645Z,66.88
2022-09-03T04:35:09.356Z,66.94
2022-09-03T04:35:43.637Z,66.96
2022-09-03T04:36:18.361Z,66.87
2022-09-03T04:36:52.992Z,66.96
2022-09-03T04:37:26.501Z,66.86
2022-09-03T04:37:59.684Z,66.90
2022-09-03T04:38:37.805Z,66.85
2022-09-03T04:39:10.892Z,66.83
2022-09-03T04:39:44.144Z,66.81
2022-09-03T04:40:17.922Z,66.82
2022-09-03T04:40:53.982Z,66.85
2022-09-03T04:41:29.175Z,66.83
2022-09-03T04:42:04.673Z,66.92
2022-09-03T04:42:37.728Z,66.97
2022-09-03T04:43:10.895Z,67.01
2022-09-03T04:43:45.304Z,66.98
2022-09-03T04:44:22.637Z,66.99
2022-09-03T04:44:55.815Z,66.98
2022-09-03T04:45:29.166Z,66.94
2022-09-03T04:46:16.079Z,66.92
2022-09-03T04:46:51.023Z,66.94
2022-09-03T04:47:24.188Z,66.93
2022-09-03T04:48:06.370Z,66.91
2022-09-03T04:48:40.034Z,66.93
2022-09-03T04:49:13.218Z,66.81
2022-09-03T04:49:47.415Z,66.90
2022-09-03T04:50:20.681Z,66.83
2022-09-03T04:50:55.344Z,66.79
2022-09-03T04:51:33.063Z,66.81
2022-09-03T04:52:06.364Z,66.81
2022-09-03T04:52:39.771Z,66.76
2022-09-03T04:53:12.924Z,66.74
2022-09-03T04:53:49.266Z,66.69
2022-09-03T04:54:22.425Z,66.71
2022-09-03T04:55:02.636Z,66.63
2022-09-03T04:55:37.284Z,66.65
2022-09-03T04:56:21.590Z,66.71
2022-09-03T04:56:54.759Z,66.80
2022-09-03T04:57:34.539Z,66.75
2022-09-03T04:58:08.320Z,66.79
2022-09-03T04:58:44.352Z,66.77
2022-09-03T04:59:17.547Z,66.73
2022-09-03T04:59:50.789Z,66.75
2022-09-03T05:00:23.969Z,66.70
2022-09-03T05:00:57.643Z,66.71
2022-09-03T05:01:33.137Z,66.61
2022-09-03T05:02:06.560Z,66.64
2022-09-03T05:02:40.743Z,66.69
2022-09-03T05:03:13.903Z,66.62
2022-09-03T05:03:47.622Z,66.59
2022-09-03T05:04:20.936Z,66.54
2022-09-03T05:04:54.457Z,66.48
2022-09-03T05:05:27.723Z,66.46
2022-09-03T05:06:01.014Z,66.43
2022-09-03T05:06:35.181Z,66.42
2022-09-03T05:07:08.721Z,66.47
2022-09-03T05:07:42.106Z,66.49
2022-09-03T05:08:15.377Z,66.49
2022-09-03T05:08:50.300Z,66.54
2022-09-03T05:09:23.774Z,66.52
2022-09-03T05:09:57.307Z,66.51
2022-09-03T05:10:31.301Z,66.52
2022-09-03T05:11:06.580Z,66.59
2022-09-03T05:11:39.767Z,66.49
2022-09-03T05:12:13.403Z,66.36
2022-09-03T05:12:50.128Z,66.29
2022-09-03T05:13:23.443Z,66.37
2022-09-03T05:13:59.309Z,66.34
2022-09-03T05:14:32.623Z,66.33
2022-09-03T05:15:06.858Z,66.28
2022-09-03T05:15:45.699Z,66.23
2022-09-03T05:16:20.102Z,66.25
2022-09-03T05:16:53.641Z,66.19
2022-09-03T05:17:28.070Z,66.28
2022-09-03T05:18:02.782Z,66.18
2022-09-03T05:18:37.166Z,66.08
2022-09-03T05:19:11.159Z,66.18
2022-09-03T05:19:45.037Z,66.20
2022-09-03T05:20:18.461Z,66.13
2022-09-03T05:21:02.538Z,66.15
2022-09-03T05:21:36.804Z,66.13
2022-09-03T05:22:09.978Z,66.10
2022-09-03T05:22:43.452Z,66.09
2022-09-03T05:23:16.759Z,66.10
2022-09-03T05:23:51.467Z,66.09
2022-09-03T05:24:25.264Z,66.02
2022-09-03T05:24:58.470Z,66.08
2022-09-03T05:25:35.075Z,66.06
2022-09-03T05:26:13.603Z,65.97
2022-09-03T05:26:47.227Z,66.02
2022-09-03T05:27:20.413Z,65.90
2022-09-03T05:27:54.594Z,65.87
2022-09-03T05:28:30.129Z,65.83
2022-09-03T05:29:08.292Z,65.78
2022-09-03T05:29:41.400Z,65.75
2022-09-03T05:30:14.636Z,65.73
2022-09-03T05:30:48.026Z,65.67
2022-09-03T05:31:22.751Z,65.57
2022-09-03T05:31:56.076Z,65.54
2022-09-03T05:32:31.902Z,65.56
2022-09-03T05:33:06.438Z,65.51
2022-09-03T05:33:44.403Z,65.39
2022-09-03T05:34:18.424Z,65.45
2022-09-03T05:34:51.938Z,65.40
2022-09-03T05:35:27.865Z,65.48
2022-09-03T05:36:09.007Z,65.47
2022-09-03T05:36:42.274Z,65.49
2022-09-03T05:37:15.784Z,65.48
2022-09-03T05:37:49.233Z,65.47
2022-09-03T05:38:22.497Z,65.53
2022-09-03T05:38:58.446Z,65.42
2022-09-03T05:39:32.409Z,65.44
2022-09-03T05:40:06.818Z,65.38
2022-09-03T05:40:41.825Z,65.39
2022-09-03T05:41:16.957Z,65.24
2022-09-03T05:41:53.242Z,65.23
2022-09-03T05:42:28.670Z,65.11
2022-09-03T05:43:06.517Z,65.10
2022-09-03T05:43:42.569Z,65.04
2022-09-03T05:44:15.827Z,64.95
2022-09-03T05:44:49.938Z,64.90
2022-09-03T05:45:23.659Z,64.89
2022-09-03T05:46:01.628Z,64.91
2022-09-03T05:46:38.359Z,64.77
2022-09-03T05:47:11.684Z,64.77
2022-09-03T05:47:45.419Z,64.84
2022-09-03T05:48:18.995Z,64.83
2022-09-03T05:48:52.411Z,64.82
2022-09-03T05:49:25.855Z,64.82
2022-09-03T05:49:59.109Z,64.79
2022-09-03T05:50:32.365Z,64.87
2022-09-03T05:51:11.955Z,64.91
2022-09-03T05:51:46.621Z,64.86
2022-09-03T05:52:22.017Z,64.76
2022-09-03T05:52:55.273Z,64.82
2022-09-03T05:53:29.635Z,64.84
2022-09-03T05:54:04.274Z,64.76
2022-09-03T05:54:37.590Z,64.78
2022-09-03T05:55:13.478Z,64.72
2022-09-03T05:55:56.256Z,64.80
2022-09-03T05:56:31.005Z,64.67
2022-09-03T05:57:04.944Z,64.72
2022-09-03T05:57:38.602Z,64.70
2022-09-03T05:58:11.788Z,64.70
2022-09-03T05:58:48.382Z,64.62
2022-09-03T05:59:21.544Z,64.69
2022-09-03T05:59:54.807Z,64.59
2022-09-03T06:00:28.179Z,64.58
2022-09-03T06:01:30.009Z,64.63
2022-09-03T06:02:03.391Z,64.68
2022-09-03T06:02:36.635Z,64.64
2022-09-03T06:03:10.163Z,64.66
2022-09-03T06:03:45.374Z,64.55
2022-09-03T06:04:19.522Z,64.48
2022-09-03T06:04:52.908Z,64.40
2022-09-03T06:05:26.063Z,64.36
2022-09-03T06:05:59.091Z,64.36
2022-09-03T06:06:35.653Z,64.33
2022-09-03T06:07:09.239Z,64.36
2022-09-03T06:07:42.714Z,64.41
2022-09-03T06:08:15.930Z,64.35
2022-09-03T06:08:49.379Z,64.37
2022-09-03T06:09:23.664Z,64.28
2022-09-03T06:09:57.305Z,64.27
2022-09-03T06:10:38.792Z,64.20
2022-09-03T06:11:14.230Z,64.27
2022-09-03T06:11:50.107Z,64.17
2022-09-03T06:12:23.727Z,64.15
2022-09-03T06:13:04.109Z,64.12
2022-09-03T06:13:37.819Z,64.11
2022-09-03T06:14:13.369Z,64.08
2022-09-03T06:14:46.615Z,64.00
2022-09-03T06:15:19.831Z,63.91
2022-09-03T06:16:04.361Z,63.93
2022-09-03T06:16:43.044Z,63.75
2022-09-03T06:17:16.464Z,63.68
2022-09-03T06:17:50.052Z,63.76
2022-09-03T06:18:23.319Z,63.81
2022-09-03T06:18:56.822Z,63.79
2022-09-03T06:19:29.998Z,63.84
2022-09-03T06:20:03.576Z,63.87
2022-09-03T06:20:37.452Z,63.81
2022-09-03T06:21:10.808Z,63.76
2022-09-03T06:21:47.610Z,63.79
2022-09-03T06:22:20.695Z,63.74
2022-09-03T06:22:53.898Z,63.77
2022-09-03T06:23:28.580Z,63.64
2022-09-03T06:24:03.248Z,63.55
2022-09-03T06:24:37.211Z,63.66
2022-09-03T06:25:11.498Z,63.72
2022-09-03T06:25:44.897Z,63.59
2022-09-03T06:26:20.199Z,63.54
2022-09-03T06:26:53.985Z,63.64
2022-09-03T06:27:29.613Z,63.69
2022-09-03T06:28:03.040Z,63.55
2022-09-03T06:28:39.165Z,63.65
2022-09-03T06:29:13.354Z,63.61
2022-09-03T06:29:46.554Z,63.64
2022-09-03T06:30:20.856Z,63.56
2022-09-03T06:30:54.858Z,63.56
2022-09-03T06:31:28.677Z,63.61
2022-09-03T06:32:05.255Z,63.69
2022-09-03T06:32:48.315Z,63.69
2022-09-03T06:33:22.506Z,63.61
2022-09-03T06:34:00.802Z,63.66
2022-09-03T06:34:37.613Z,63.62
2022-09-03T06:35:12.069Z,63.66
2022-09-03T06:35:47.379Z,63.71
2022-09-03T06:36:23.183Z,63.73
2022-09-03T06:36:57.026Z,63.82
2022-09-03T06:37:31.512Z,63.86
2022-09-03T06:38:05.610Z,63.85
2022-09-03T06:38:40.970Z,63.93
2022-09-03T06:39:15.253Z,63.90
2022-09-03T06:39:51.341Z,63.95
2022-09-03T06:40:27.036Z,64.00
2022-09-03T06:41:05.360Z,64.04
2022-09-03T06:41:40.602Z,64.06
2022-09-03T06:42:15.300Z,64.08
2022-09-03T06:43:03.772Z,64.09
2022-09-03T06:43:41.195Z,64.03
2022-09-03T06:44:15.789Z,64.19
2022-09-03T06:44:50.430Z,64.22
2022-09-03T06:45:24.646Z,64.23
2022-09-03T06:46:01.581Z,64.29
2022-09-03T06:46:39.640Z,64.30
2022-09-03T06:47:14.207Z,64.35
2022-09-03T06:47:48.269Z,64.31
2022-09-03T06:48:22.251Z,64.38
2022-09-03T06:48:56.632Z,64.39
2022-09-03T06:49:32.249Z,64.36
2022-09-03T06:50:07.204Z,64.40
2022-09-03T06:50:41.127Z,64.42
2022-09-03T06:51:21.860Z,64.46
2022-09-03T06:51:56.296Z,64.50
2022-09-03T06:52:39.036Z,64.56
2022-09-03T06:53:13.902Z,64.66
2022-09-03T06:53:52.183Z,64.76
2022-09-03T06:54:28.729Z,64.82
2022-09-03T06:55:04.088Z,64.84
2022-09-03T06:55:40.700Z,64.79
2022-09-03T06:56:18.716Z,64.80
2022-09-03T06:56:53.888Z,64.88
2022-09-03T06:57:31.603Z,64.93
2022-09-03T06:58:06.108Z,64.91
2022-09-03T06:58:44.648Z,64.90
2022-09-03T06:59:18.294Z,64.92
2022-09-03T06:59:52.259Z,65.01
2022-09-03T07:00:25.984Z,64.99
2022-09-03T07:01:14.380Z,65.00
2022-09-03T07:01:48.366Z,64.98
2022-09-03T07:02:23.615Z,65.02
2022-09-03T07:03:03.405Z,64.99
2022-09-03T07:03:38.604Z,65.05
2022-09-03T07:04:19.283Z,65.08
2022-09-03T07:04:54.717Z,65.16
2022-09-03T07:05:29.939Z,65.11
2022-09-03T07:06:06.382Z,65.22
2022-09-03T07:06:43.239Z,65.23
2022-09-03T07:07:17.432Z,65.27
2022-09-03T07:07:51.800Z,65.21
2022-09-03T07:08:26.260Z,65.26
2022-09-03T07:09:00.539Z,65.21
2022-09-03T07:09:38.523Z,65.25
2022-09-03T07:10:14.263Z,65.25
2022-09-03T07:10:47.790Z,65.31
2022-09-03T07:11:26.361Z,65.28
2022-09-03T07:11:59.490Z,65.37
2022-09-03T07:12:37.719Z,65.32
2022-09-03T07:13:10.892Z,65.33
2022-09-03T07:13:48.087Z,65.34
2022-09-03T07:14:22.825Z,65.38
2022-09-03T07:14:56.181Z,65.37
2022-09-03T07:15:29.508Z,65.39
2022-09-03T07:16:06.873Z,65.42
2022-09-03T07:16:42.070Z,65.43
2022-09-03T07:17:15.931Z,65.42
2022-09-03T07:17:50.645Z,65.43
2022-09-03T07:18:24.064Z,65.42
2022-09-03T07:18:58.130Z,65.45
2022-09-03T07:19:31.533Z,65.42
2022-09-03T07:20:05.045Z,65.47
2022-09-03T07:20:38.293Z,65.39
2022-09-03T07:21:14.786Z,65.43
2022-09-03T07:21:50.495Z,65.40
2022-09-03T07:22:26.082Z,65.41
2022-09-03T07:23:04.924Z,65.30
2022-09-03T07:23:39.619Z,65.26
2022-09-03T07:24:14.447Z,65.24
2022-09-03T07:24:47.942Z,65.17
2022-09-03T07:25:22.662Z,65.15
2022-09-03T07:26:02.161Z,65.17
2022-09-03T07:26:41.211Z,65.08
2022-09-03T07:27:15.176Z,64.98
2022-09-03T07:27:51.484Z,64.97
2022-09-03T07:28:26.335Z,65.08
2022-09-03T07:29:01.216Z,64.92
2022-09-03T07:29:34.369Z,64.90
2022-09-03T07:30:10.617Z,64.99
2022-09-03T07:30:43.836Z,64.99
2022-09-03T07:31:20.019Z,64.85
2022-09-03T07:31:53.619Z,64.88
2022-09-03T07:32:28.104Z,64.89
2022-09-03T07:33:04.844Z,64.84
2022-09-03T07:33:39.863Z,64.86
2022-09-03T07:34:14.264Z,64.89
2022-09-03T07:34:47.603Z,64.81
2022-09-03T07:35:21.663Z,64.74
2022-09-03T07:35:55.064Z,64.67
2022-09-03T07:36:35.247Z,64.67
2022-09-03T07:37:09.773Z,64.62
2022-09-03T07:37:43.986Z,64.45
2022-09-03T07:38:20.068Z,64.38
2022-09-03T07:38:57.084Z,64.20
2022-09-03T07:39:30.505Z,64.12
2022-09-03T07:40:04.661Z,64.01
2022-09-03T07:40:39.717Z,63.98
2022-09-03T07:41:23.930Z,63.96
2022-09-03T07:42:02.654Z,63.97
2022-09-03T07:42:36.459Z,63.94
2022-09-03T07:43:10.456Z,63.94
2022-09-03T07:43:48.720Z,63.91
2022-09-03T07:44:25.410Z,63.92
2022-09-03T07:44:59.969Z,63.84
2022-09-03T07:45:33.952Z,63.92
2022-09-03T07:46:08.871Z,63.91
2022-09-03T07:46:43.816Z,63.85
2022-09-03T07:47:19.913Z,63.80
2022-09-03T07:48:01.060Z,63.81
2022-09-03T07:48:37.458Z,63.76
2022-09-03T07:49:11.358Z,63.74
2022-09-03T07:49:44.688Z,63.66
2022-09-03T07:50:21.843Z,63.67
2022-09-03T07:51:01.483Z,63.57
2022-09-03T07:51:37.622Z,63.69
2022-09-03T07:52:11.739Z,63.62
2022-09-03T07:52:45.813Z,63.68
2022-09-03T07:53:21.345Z,63.46
2022-09-03T07:53:58.287Z,63.64
2022-09-03T07:54:32.339Z,63.41
2022-09-03T07:55:06.514Z,63.52
2022-09-03T07:55:40.646Z,63.54
2022-09-03T07:56:14.937Z,63.55
2022-09-03T07:56:48.600Z,63.56
2022-09-03T07:57:22.690Z,63.52
2022-09-03T07:57:57.189Z,63.50
2022-09-03T07:58:32.408Z,63.51
2022-09-03T07:59:06.597Z,63.46
2022-09-03T07:59:39.935Z,63.47
2022-09-03T08:00:14.727Z,63.45
2022-09-03T08:00:49.412Z,63.39
2022-09-03T08:01:24.173Z,63.38
2022-09-03T08:01:57.950Z,63.28
2022-09-03T08:02:31.525Z,63.32
2022-09-03T08:03:08.600Z,63.21
2022-09-03T08:03:51.837Z,63.22
2022-09-03T08:04:25.771Z,63.24
2022-09-03T08:04:58.978Z,63.18
2022-09-03T08:05:38.940Z,63.03
2022-09-03T08:06:13.716Z,62.97
2022-09-03T08:06:46.929Z,62.96
2022-09-03T08:07:19.958Z,62.90
2022-09-03T08:07:53.461Z,62.85
2022-09-03T08:08:27.804Z,62.85